createdAt,value
2022-10-07T00:02:28.403Z,1.50
2022-10-07T00:05:30.186Z,1.40
2022-10-07T00:08:32.559Z,1.33
2022-10-07T00:11:34.421Z,1.30
2022-10-07T00:14:36.227Z,1.30
2022-10-07T00:17:38.735Z,1.40
2022-10-07T00:20:41.043Z,1.40
2022-10-07T00:23:44.131Z,1.40
2022-10-07T00:26:45.911Z,1.52
2022-10-07T00:29:47.614Z,1.50
2022-10-07T00:32:49.348Z,1.38
2022-10-07T00:35:51.142Z,1.20
2022-10-07T00:38:56.231Z,1.40
2022-10-07T00:41:57.902Z,1.33
2022-10-07T00:44:59.610Z,1.50
2022-10-07T00:48:01.403Z,1.15
2022-10-07T00:51:03.502Z,1.17
2022-10-07T00:54:10.956Z,1.63
2022-10-07T00:57:12.702Z,1.50
2022-10-07T01:00:14.978Z,1.50
2022-10-07T01:03:18.010Z,1.30
2022-10-07T01:06:19.703Z,1.30
2022-10-07T01:09:21.650Z,1.38
2022-10-07T01:12:23.346Z,1.30
2022-10-07T01:16:00.804Z,1.20
2022-10-07T01:19:03.780Z,1.42
2022-10-07T01:22:28.861Z,1.10
2022-10-07T01:25:56.859Z,1.30
2022-10-07T01:29:11.565Z,1.50
2022-10-07T01:32:19.415Z,1.35
2022-10-07T01:35:26.165Z,1.20
2022-10-07T01:38:29.720Z,1.40
2022-10-07T01:41:32.818Z,1.10
2022-10-07T01:44:35.439Z,1.20
2022-10-07T01:47:40.466Z,1.30
2022-10-07T01:50:44.690Z,1.48
2022-10-07T01:54:02.215Z,1.50
2022-10-07T01:57:29.656Z,1.35
2022-10-07T02:00:36.435Z,1.50
2022-10-07T02:04:07.223Z,1.20
2022-10-07T02:07:32.005Z,1.10
2022-10-07T02:10:48.149Z,1.20
2022-10-07T02:13:56.164Z,1.30
2022-10-07T02:17:07.879Z,1.50
2022-10-07T02:20:12.767Z,1.50
2022-10-07T02:23:21.134Z,1.30
2022-10-07T02:26:25.726Z,1.30
2022-10-07T02:29:34.016Z,1.35
2022-10-07T02:32:39.213Z,1.30
2022-10-07T02:35:51.076Z,1.65
2022-10-07T02:38:53.337Z,1.20
2022-10-07T02:42:03.623Z,1.50
2022-10-07T02:45:24.510Z,1.75
2022-10-07T02:48:40.110Z,1.20
2022-10-07T02:51:54.846Z,1.30
2022-10-07T02:55:00.461Z,1.30
2022-10-07T02:58:07.337Z,1.60
2022-10-07T03:01:16.478Z,1.58
2022-10-07T03:04:19.137Z,1.33
2022-10-07T03:07:21.838Z,1.55
2022-10-07T03:10:24.050Z,1.50
2022-10-07T03:13:26.308Z,1.30
2022-10-07T03:19:34.612Z,1.50
2022-10-07T03:22:36.629Z,1.60
2022-10-07T03:25:39.141Z,2.63
2022-10-07T03:28:41.011Z,1.45
2022-10-07T03:31:46.468Z,1.42
2022-10-07T03:34:48.138Z,1.40
2022-10-07T03:37:49.870Z,1.52
2022-10-07T03:40:52.895Z,1.27
2022-10-07T03:43:57.439Z,1.58
2022-10-07T03:47:00.276Z,1.55
2022-10-07T03:50:02.587Z,1.55
2022-10-07T03:53:06.046Z,1.50
2022-10-07T03:56:08.311Z,1.60
2022-10-07T03:59:11.857Z,1.58
2022-10-07T04:02:14.607Z,1.55
2022-10-07T04:05:22.060Z,1.50
2022-10-07T04:09:12.572Z,1.48
2022-10-07T04:12:54.899Z,1.45
2022-10-07T04:21:24.352Z,1.50
2022-10-07T04:25:20.404Z,1.40
2022-10-07T04:32:18.845Z,2.15
2022-10-07T04:36:25.396Z,1.65
2022-10-07T04:43:39.440Z,1.35
2022-10-07T04:47:02.731Z,1.50
2022-10-07T04:50:27.637Z,1.40
2022-10-07T04:54:52.480Z,1.92
2022-10-07T04:59:24.112Z,1.40
2022-10-07T05:01:27.146Z,1.52
2022-10-07T05:04:29.930Z,1.48
2022-10-07T05:07:32.847Z,1.70
2022-10-07T05:10:38.702Z,1.50
2022-10-07T05:19:07.632Z,1.45
2022-10-07T05:23:39.342Z,1.95
2022-10-07T05:56:22.540Z,2.00
2022-10-07T05:59:29.047Z,1.92
2022-10-07T06:02:42.286Z,1.60
2022-10-07T06:06:00.200Z,1.60
2022-10-07T06:09:21.747Z,1.80
2022-10-07T06:39:59.776Z,1.70
2022-10-07T06:43:04.682Z,2.33
2022-10-07T06:46:20.403Z,2.08
2022-10-07T06:49:25.319Z,1.60
2022-10-07T06:52:27.554Z,1.45
2022-10-07T06:55:29.725Z,1.80
2022-10-07T06:58:35.280Z,1.60
2022-10-07T07:01:39.126Z,1.80
2022-10-07T07:04:41.002Z,2.03
2022-10-07T07:07:43.247Z,1.77
2022-10-07T07:10:47.094Z,1.67
2022-10-07T07:13:48.940Z,1.67
2022-10-07T07:16:52.267Z,1.95
2022-10-07T07:19:55.494Z,1.75
2022-10-07T07:22:57.171Z,1.98
2022-10-07T07:26:00.964Z,1.73
2022-10-07T07:29:05.264Z,2.05
2022-10-07T07:32:12.360Z,1.75
2022-10-07T07:35:17.372Z,2.00
2022-10-07T07:38:24.737Z,1.70
2022-10-07T07:41:31.688Z,2.10
2022-10-07T07:44:36.842Z,1.75
2022-10-07T07:47:40.921Z,1.80
2022-10-07T07:50:43.303Z,2.05
2022-10-07T07:53:46.491Z,1.98
2022-10-07T07:56:48.341Z,1.50
2022-10-07T07:59:55.185Z,1.50
2022-10-07T08:02:56.977Z,1.70
2022-10-07T08:06:03.684Z,1.80
2022-10-07T08:09:06.461Z,1.63
2022-10-07T08:12:09.009Z,1.73
2022-10-07T08:15:10.892Z,1.55
2022-10-07T08:18:13.536Z,1.90
2022-10-07T08:21:18.354Z,1.70
2022-10-07T08:24:24.986Z,1.80
2022-10-07T08:27:28.390Z,1.58
2022-10-07T08:30:30.232Z,1.70
2022-10-07T08:33:34.720Z,1.70
2022-10-07T08:36:36.760Z,2.42
2022-10-07T08:39:38.412Z,1.77
2022-10-07T08:42:42.800Z,1.73
2022-10-07T08:45:45.283Z,1.77
2022-10-07T08:49:00.899Z,2.05
2022-10-07T08:52:37.775Z,1.40
2022-10-07T08:55:45.799Z,1.98
2022-10-07T08:59:22.944Z,1.67
2022-10-07T09:03:15.210Z,1.90
2022-10-07T09:06:27.970Z,1.83
2022-10-07T09:09:34.705Z,1.70
2022-10-07T09:16:08.897Z,1.80
2022-10-07T09:19:55.715Z,1.52
2022-10-07T09:22:58.876Z,1.58
2022-10-07T09:26:00.640Z,1.60
2022-10-07T09:29:02.350Z,1.40
2022-10-07T09:32:04.004Z,1.58
2022-10-07T09:35:06.171Z,1.67
2022-10-07T09:38:09.178Z,1.70
2022-10-07T09:41:16.530Z,1.70
2022-10-07T09:44:18.312Z,1.77
2022-10-07T09:47:24.142Z,1.50
2022-10-07T09:50:34.279Z,1.57
2022-10-07T09:53:35.909Z,1.50
2022-10-07T09:56:43.107Z,1.50
2022-10-07T09:59:44.661Z,1.50
2022-10-07T10:03:04.994Z,1.70
2022-10-07T10:06:09.161Z,1.55
2022-10-07T10:09:14.068Z,1.65
2022-10-07T10:12:20.248Z,2.22
2022-10-07T10:15:43.845Z,1.85
2022-10-07T10:18:54.914Z,1.40
2022-10-07T10:21:57.483Z,1.70
2022-10-07T10:25:17.194Z,2.30
2022-10-07T10:29:03.139Z,1.48
2022-10-07T10:32:31.262Z,1.67
2022-10-07T10:35:43.441Z,1.50
2022-10-07T10:39:03.956Z,1.40
2022-10-07T10:42:12.011Z,1.90
2022-10-07T10:45:47.814Z,1.27
2022-10-07T10:48:53.162Z,1.65
2022-10-07T10:52:23.584Z,1.90
2022-10-07T10:55:25.369Z,1.60
2022-10-07T10:58:27.474Z,1.25
2022-10-07T11:01:38.885Z,1.60
2022-10-07T11:04:55.236Z,1.38
2022-10-07T11:08:17.268Z,1.38
2022-10-07T11:11:22.402Z,1.40
2022-10-07T11:14:25.843Z,1.40
2022-10-07T11:17:34.021Z,1.73
2022-10-07T11:20:43.743Z,1.30
2022-10-07T11:24:02.151Z,1.38
2022-10-07T11:27:40.175Z,1.25
2022-10-07T11:34:31.026Z,1.75
2022-10-07T11:37:45.238Z,1.27
2022-10-07T11:41:15.737Z,1.77
2022-10-07T11:44:32.728Z,1.48
2022-10-07T11:51:01.659Z,1.58
2022-10-07T11:54:06.732Z,1.40
2022-10-07T11:57:20.131Z,1.40
2022-10-07T12:00:33.816Z,1.25
2022-10-07T12:03:38.390Z,1.30
2022-10-07T12:06:40.025Z,1.30
2022-10-07T12:10:01.410Z,1.30
2022-10-07T12:13:09.802Z,1.40
2022-10-07T12:16:23.822Z,1.15
2022-10-07T12:19:25.532Z,1.10
2022-10-07T12:22:28.164Z,1.50
2022-10-07T12:25:32.437Z,1.45
2022-10-07T12:28:40.764Z,1.30
2022-10-07T12:31:42.530Z,1.52
2022-10-07T12:34:44.145Z,1.50
2022-10-07T12:37:47.084Z,1.40
2022-10-07T12:40:57.991Z,1.33
2022-10-07T12:44:06.289Z,1.13
2022-10-07T12:47:14.943Z,1.30
2022-10-07T12:50:21.999Z,1.35
2022-10-07T12:53:26.241Z,1.60
2022-10-07T12:56:30.196Z,1.40
2022-10-07T12:59:50.230Z,1.45
2022-10-07T13:03:49.180Z,1.50
2022-10-07T13:06:56.373Z,1.58
2022-10-07T13:10:01.386Z,1.65
2022-10-07T13:13:16.989Z,1.20
2022-10-07T13:16:39.798Z,1.50
2022-10-07T13:19:56.925Z,1.42
2022-10-07T13:23:05.047Z,1.00
2022-10-07T13:26:07.080Z,1.33
2022-10-07T13:29:24.690Z,1.30
2022-10-07T13:32:29.804Z,1.40
2022-10-07T13:35:37.532Z,1.20
2022-10-07T13:38:41.024Z,1.25
2022-10-07T13:41:45.810Z,1.20
2022-10-07T13:44:47.448Z,1.20
2022-10-07T13:47:49.625Z,1.50
2022-10-07T13:50:54.424Z,1.40
2022-10-07T13:53:59.450Z,1.85
2022-10-07T13:57:02.844Z,1.30
2022-10-07T14:00:05.018Z,1.10
2022-10-07T14:03:15.930Z,1.60
2022-10-07T14:06:36.901Z,1.30
2022-10-07T14:09:45.976Z,1.10
2022-10-07T14:12:51.066Z,1.10
2022-10-07T14:15:56.111Z,1.38
2022-10-07T14:18:58.223Z,1.05
2022-10-07T14:22:03.066Z,1.30
2022-10-07T14:25:07.153Z,1.58
2022-10-07T14:28:19.719Z,1.55
2022-10-07T14:31:40.219Z,1.20
2022-10-07T14:35:03.483Z,1.33
2022-10-07T14:38:26.336Z,1.20
2022-10-07T14:41:29.763Z,1.38
2022-10-07T14:44:31.785Z,1.20
2022-10-07T14:47:33.609Z,1.02
2022-10-07T14:50:36.345Z,1.40
2022-10-07T14:53:40.294Z,1.42
2022-10-07T14:56:41.877Z,1.40
2022-10-07T14:59:43.502Z,1.40
2022-10-07T15:02:45.423Z,1.60
2022-10-07T15:05:48.829Z,1.23
2022-10-07T15:08:50.452Z,1.60
2022-10-07T15:11:52.088Z,1.40
2022-10-07T15:14:54.839Z,1.60
2022-10-07T15:17:56.446Z,1.20
2022-10-07T15:20:58.074Z,1.40
2022-10-07T15:24:01.726Z,1.35
2022-10-07T15:27:03.811Z,1.50
2022-10-07T15:30:07.258Z,1.30
2022-10-07T15:33:10.316Z,1.20
2022-10-07T15:36:13.192Z,1.40
2022-10-07T15:39:14.734Z,1.38
2022-10-07T15:42:16.356Z,1.50
2022-10-07T15:45:18.001Z,1.13
2022-10-07T15:48:23.215Z,1.20
2022-10-07T15:51:26.412Z,1.35
2022-10-07T15:54:28.409Z,1.40
2022-10-07T15:57:29.975Z,1.40
2022-10-07T16:00:34.497Z,1.42
2022-10-07T16:03:40.630Z,1.20
2022-10-07T16:06:49.417Z,1.20
2022-10-07T16:09:51.140Z,1.30
2022-10-07T16:12:52.825Z,1.30
2022-10-07T16:16:29.777Z,1.50
2022-10-07T16:19:32.892Z,1.30
2022-10-07T16:22:34.523Z,1.40
2022-10-07T16:25:36.133Z,1.17
2022-10-07T16:29:05.881Z,1.25
2022-10-07T16:32:10.714Z,1.35
2022-10-07T16:35:12.474Z,1.55
2022-10-07T16:38:14.102Z,1.80
2022-10-07T16:41:16.714Z,3.53
2022-10-07T16:44:19.378Z,6.00
2022-10-07T16:47:20.948Z,6.25
2022-10-07T16:50:23.032Z,4.85
2022-10-07T16:53:26.781Z,4.10
2022-10-07T16:56:30.154Z,3.47
2022-10-07T16:59:31.900Z,2.55
2022-10-07T17:02:33.517Z,2.58
2022-10-07T17:05:37.400Z,2.10
2022-10-07T17:08:43.767Z,2.83
2022-10-07T17:11:47.803Z,3.35
2022-10-07T17:14:49.838Z,2.90
2022-10-07T17:17:54.783Z,2.75
2022-10-07T17:20:56.453Z,2.10
2022-10-07T17:23:58.277Z,2.15
2022-10-07T17:26:59.878Z,1.63
2022-10-07T17:30:01.587Z,2.00
2022-10-07T17:33:03.217Z,1.80
2022-10-07T17:36:06.985Z,1.50
2022-10-07T17:39:08.904Z,1.70
2022-10-07T17:42:10.677Z,1.80
2022-10-07T17:45:12.413Z,2.90
2022-10-07T17:48:14.022Z,3.42
2022-10-07T17:51:17.153Z,3.50
2022-10-07T17:54:18.800Z,3.17
2022-10-07T17:57:21.450Z,2.80
2022-10-07T20:51:27.282Z,1.70
2022-10-07T21:03:55.458Z,1.58
2022-10-07T21:20:25.958Z,1.83
2022-10-07T21:44:55.935Z,1.52
2022-10-07T23:12:36.668Z,1.52
2022-10-07T23:20:41.964Z,1.40
2022-10-07T23:29:51.007Z,1.50
2022-10-07T23:33:22.073Z,1.63
2022-10-07T23:48:28.292Z,1.60
2022-10-07T23:55:22.340Z,1.45
